sensor_id;sensor_type;location;lat;lon;timestamp;P1;durP1;ratioP1;P2;durP2;ratioP2
2638;SDS011;1329;51.384;7.122;2023-06-14T00:01:52;4.82;;;4.43;;
2638;SDS011;1329;51.384;7.122;2023-06-14T00:04:20;4.50;;;4.10;;
2638;SDS011;1329;51.384;7.122;2023-06-14T00:06:50;4.70;;;4.30;;
2638;SDS011;1329;51.384;7.122;2023-06-14T00:09:17;5.05;;;4.65;;
2638;SDS011;1329;51.384;7.122;2023-06-14T00:11:45;5.65;;;4.78;;
2638;SDS011;1329;51.384;7.122;2023-06-14T00:14:12;4.80;;;4.40;;
2638;SDS011;1329;51.384;7.122;2023-06-14T00:16:39;4.68;;;4.28;;
2638;SDS011;1329;51.384;7.122;2023-06-14T00:19:09;5.75;;;5.00;;
2638;SDS011;1329;51.384;7.122;2023-06-14T00:21:36;5.00;;;4.60;;
2638;SDS011;1329;51.384;7.122;2023-06-14T00:24:03;5.00;;;4.60;;
2638;SDS011;1329;51.384;7.122;2023-06-14T00:26:31;5.18;;;4.70;;
2638;SDS011;1329;51.384;7.122;2023-06-14T00:28:58;5.13;;;4.63;;
2638;SDS011;1329;51.384;7.122;2023-06-14T00:31:25;5.50;;;5.05;;
2638;SDS011;1329;51.384;7.122;2023-06-14T00:33:52;4.95;;;4.55;;
2638;SDS011;1329;51.384;7.122;2023-06-14T00:36:20;5.25;;;4.75;;
2638;SDS011;1329;51.384;7.122;2023-06-14T00:38:47;5.32;;;4.82;;
2638;SDS011;1329;51.384;7.122;2023-06-14T00:41:15;5.65;;;5.00;;
2638;SDS011;1329;51.384;7.122;2023-06-14T00:43:42;5.60;;;5.10;;
2638;SDS011;1329;51.384;7.122;2023-06-14T00:46:09;6.32;;;5.13;;
2638;SDS011;1329;51.384;7.122;2023-06-14T00:48:36;5.32;;;4.82;;
2638;SDS011;1329;51.384;7.122;2023-06-14T00:51:04;5.30;;;4.80;;
2638;SDS011;1329;51.384;7.122;2023-06-14T00:53:33;6.57;;;5.28;;
2638;SDS011;1329;51.384;7.122;2023-06-14T00:56:00;5.38;;;4.63;;
2638;SDS011;1329;51.384;7.122;2023-06-14T00:58:28;5.80;;;5.28;;
2638;SDS011;1329;51.384;7.122;2023-06-14T01:00:57;5.53;;;5.03;;
2638;SDS011;1329;51.384;7.122;2023-06-14T01:03:24;5.43;;;4.93;;
2638;SDS011;1329;51.384;7.122;2023-06-14T01:05:53;4.95;;;4.45;;
2638;SDS011;1329;51.384;7.122;2023-06-14T01:08:40;5.05;;;4.65;;
2638;SDS011;1329;51.384;7.122;2023-06-14T01:11:16;5.32;;;4.82;;
2638;SDS011;1329;51.384;7.122;2023-06-14T01:13:50;5.20;;;4.70;;
2638;SDS011;1329;51.384;7.122;2023-06-14T01:16:18;5.15;;;4.45;;
2638;SDS011;1329;51.384;7.122;2023-06-14T01:18:54;5.00;;;4.50;;
2638;SDS011;1329;51.384;7.122;2023-06-14T01:21:25;5.60;;;4.63;;
2638;SDS011;1329;51.384;7.122;2023-06-14T01:23:56;5.20;;;4.72;;
2638;SDS011;1329;51.384;7.122;2023-06-14T01:26:23;5.00;;;4.55;;
2638;SDS011;1329;51.384;7.122;2023-06-14T01:28:54;5.22;;;4.68;;
2638;SDS011;1329;51.384;7.122;2023-06-14T01:31:23;5.20;;;4.78;;
2638;SDS011;1329;51.384;7.122;2023-06-14T01:33:52;5.32;;;4.90;;
2638;SDS011;1329;51.384;7.122;2023-06-14T01:36:20;5.38;;;4.88;;
2638;SDS011;1329;51.384;7.122;2023-06-14T01:38:52;6.85;;;5.20;;
2638;SDS011;1329;51.384;7.122;2023-06-14T01:41:23;5.25;;;4.78;;
2638;SDS011;1329;51.384;7.122;2023-06-14T01:43:51;6.13;;;5.45;;
2638;SDS011;1329;51.384;7.122;2023-06-14T01:46:20;5.68;;;5.18;;
2638;SDS011;1329;51.384;7.122;2023-06-14T01:48:48;5.30;;;4.90;;
2638;SDS011;1329;51.384;7.122;2023-06-14T01:51:16;5.35;;;4.85;;
2638;SDS011;1329;51.384;7.122;2023-06-14T01:53:43;5.82;;;5.32;;
2638;SDS011;1329;51.384;7.122;2023-06-14T01:56:11;5.40;;;4.90;;
2638;SDS011;1329;51.384;7.122;2023-06-14T01:58:40;5.60;;;5.10;;
2638;SDS011;1329;51.384;7.122;2023-06-14T02:01:08;5.53;;;5.03;;
2638;SDS011;1329;51.384;7.122;2023-06-14T02:03:42;5.53;;;5.05;;
2638;SDS011;1329;51.384;7.122;2023-06-14T02:06:14;5.90;;;5.30;;
2638;SDS011;1329;51.384;7.122;2023-06-14T02:08:42;6.63;;;5.07;;
2638;SDS011;1329;51.384;7.122;2023-06-14T02:11:10;5.70;;;4.97;;
2638;SDS011;1329;51.384;7.122;2023-06-14T02:13:37;5.65;;;5.15;;
2638;SDS011;1329;51.384;7.122;2023-06-14T02:16:09;5.32;;;4.93;;
2638;SDS011;1329;51.384;7.122;2023-06-14T02:18:36;5.47;;;5.03;;
2638;SDS011;1329;51.384;7.122;2023-06-14T02:21:06;5.53;;;5.10;;
2638;SDS011;1329;51.384;7.122;2023-06-14T02:23:34;5.70;;;5.20;;
2638;SDS011;1329;51.384;7.122;2023-06-14T02:26:01;5.43;;;4.93;;
2638;SDS011;1329;51.384;7.122;2023-06-14T02:28:28;6.43;;;5.60;;
2638;SDS011;1329;51.384;7.122;2023-06-14T02:30:55;5.50;;;5.00;;
2638;SDS011;1329;51.384;7.122;2023-06-14T02:33:24;6.03;;;4.80;;
2638;SDS011;1329;51.384;7.122;2023-06-14T02:35:51;6.05;;;5.45;;
2638;SDS011;1329;51.384;7.122;2023-06-14T02:38:18;5.70;;;5.20;;
2638;SDS011;1329;51.384;7.122;2023-06-14T02:40:46;5.57;;;5.07;;
2638;SDS011;1329;51.384;7.122;2023-06-14T02:43:16;5.57;;;5.10;;
2638;SDS011;1329;51.384;7.122;2023-06-14T02:45:44;6.07;;;5.43;;
2638;SDS011;1329;51.384;7.122;2023-06-14T02:48:11;5.50;;;5.00;;
2638;SDS011;1329;51.384;7.122;2023-06-14T02:50:43;6.28;;;5.68;;
2638;SDS011;1329;51.384;7.122;2023-06-14T02:53:11;6.18;;;5.57;;
2638;SDS011;1329;51.384;7.122;2023-06-14T02:55:39;5.68;;;5.18;;
2638;SDS011;1329;51.384;7.122;2023-06-14T02:58:06;5.93;;;5.43;;
2638;SDS011;1329;51.384;7.122;2023-06-14T03:00:35;5.60;;;5.10;;
2638;SDS011;1329;51.384;7.122;2023-06-14T03:03:03;5.78;;;5.28;;
2638;SDS011;1329;51.384;7.122;2023-06-14T03:05:40;6.75;;;5.35;;
2638;SDS011;1329;51.384;7.122;2023-06-14T03:08:29;5.20;;;4.72;;
2638;SDS011;1329;51.384;7.122;2023-06-14T03:11:03;5.47;;;4.97;;
2638;SDS011;1329;51.384;7.122;2023-06-14T03:13:31;5.65;;;5.13;;
2638;SDS011;1329;51.384;7.122;2023-06-14T03:15:58;5.78;;;5.03;;
2638;SDS011;1329;51.384;7.122;2023-06-14T03:18:28;5.78;;;5.22;;
2638;SDS011;1329;51.384;7.122;2023-06-14T03:21:04;5.43;;;4.97;;
2638;SDS011;1329;51.384;7.122;2023-06-14T03:23:34;5.80;;;5.30;;
2638;SDS011;1329;51.384;7.122;2023-06-14T03:26:04;5.70;;;5.20;;
2638;SDS011;1329;51.384;7.122;2023-06-14T03:28:40;6.00;;;5.05;;
2638;SDS011;1329;51.384;7.122;2023-06-14T03:31:07;5.38;;;4.90;;
2638;SDS011;1329;51.384;7.122;2023-06-14T03:33:36;5.50;;;5.00;;
2638;SDS011;1329;51.384;7.122;2023-06-14T03:36:07;6.47;;;5.88;;
2638;SDS011;1329;51.384;7.122;2023-06-14T03:38:35;5.57;;;5.07;;
2638;SDS011;1329;51.384;7.122;2023-06-14T03:41:02;5.53;;;5.03;;
2638;SDS011;1329;51.384;7.122;2023-06-14T03:43:29;5.53;;;5.00;;
2638;SDS011;1329;51.384;7.122;2023-06-14T03:45:58;5.53;;;5.03;;
2638;SDS011;1329;51.384;7.122;2023-06-14T03:48:29;5.90;;;5.30;;
2638;SDS011;1329;51.384;7.122;2023-06-14T03:51:05;6.07;;;5.18;;
2638;SDS011;1329;51.384;7.122;2023-06-14T03:53:35;5.60;;;5.10;;
2638;SDS011;1329;51.384;7.122;2023-06-14T03:56:03;5.25;;;4.82;;
2638;SDS011;1329;51.384;7.122;2023-06-14T03:58:30;5.85;;;5.30;;
2638;SDS011;1329;51.384;7.122;2023-06-14T04:00:57;5.32;;;4.90;;
2638;SDS011;1329;51.384;7.122;2023-06-14T04:03:28;5.60;;;5.10;;
2638;SDS011;1329;51.384;7.122;2023-06-14T04:05:55;6.22;;;5.45;;
2638;SDS011;1329;51.384;7.122;2023-06-14T04:08:26;5.82;;;5.30;;
2638;SDS011;1329;51.384;7.122;2023-06-14T04:10:53;5.65;;;5.07;;
2638;SDS011;1329;51.384;7.122;2023-06-14T04:13:20;5.55;;;5.05;;
2638;SDS011;1329;51.384;7.122;2023-06-14T04:15:48;6.00;;;5.30;;
2638;SDS011;1329;51.384;7.122;2023-06-14T04:18:15;5.80;;;5.20;;
2638;SDS011;1329;51.384;7.122;2023-06-14T04:20:43;5.30;;;4.82;;
2638;SDS011;1329;51.384;7.122;2023-06-14T04:23:11;5.60;;;5.10;;
2638;SDS011;1329;51.384;7.122;2023-06-14T04:25:40;5.50;;;5.00;;
2638;SDS011;1329;51.384;7.122;2023-06-14T04:28:10;6.10;;;5.10;;
2638;SDS011;1329;51.384;7.122;2023-06-14T04:30:40;5.50;;;5.00;;
2638;SDS011;1329;51.384;7.122;2023-06-14T04:33:12;6.15;;;5.25;;
2638;SDS011;1329;51.384;7.122;2023-06-14T04:35:41;5.38;;;4.95;;
2638;SDS011;1329;51.384;7.122;2023-06-14T04:38:12;5.45;;;4.95;;
2638;SDS011;1329;51.384;7.122;2023-06-14T04:40:44;5.55;;;5.05;;
2638;SDS011;1329;51.384;7.122;2023-06-14T04:43:14;4.50;;;4.20;;
2638;SDS011;1329;51.384;7.122;2023-06-14T04:45:43;5.55;;;4.80;;
2638;SDS011;1329;51.384;7.122;2023-06-14T04:48:21;5.68;;;4.70;;
2638;SDS011;1329;51.384;7.122;2023-06-14T04:50:51;4.80;;;4.30;;
2638;SDS011;1329;51.384;7.122;2023-06-14T04:53:20;4.90;;;4.45;;
2638;SDS011;1329;51.384;7.122;2023-06-14T04:56:03;5.65;;;4.28;;
2638;SDS011;1329;51.384;7.122;2023-06-14T04:58:30;4.53;;;4.07;;
2638;SDS011;1329;51.384;7.122;2023-06-14T05:01:11;4.78;;;4.00;;
2638;SDS011;1329;51.384;7.122;2023-06-14T05:03:45;4.43;;;4.03;;
2638;SDS011;1329;51.384;7.122;2023-06-14T05:06:15;4.05;;;3.65;;
2638;SDS011;1329;51.384;7.122;2023-06-14T05:08:47;4.25;;;3.70;;
2638;SDS011;1329;51.384;7.122;2023-06-14T05:11:45;3.88;;;3.53;;
2638;SDS011;1329;51.384;7.122;2023-06-14T05:14:16;4.55;;;3.67;;
2638;SDS011;1329;51.384;7.122;2023-06-14T05:17:05;3.90;;;3.58;;
2638;SDS011;1329;51.384;7.122;2023-06-14T05:19:32;4.00;;;3.60;;
2638;SDS011;1329;51.384;7.122;2023-06-14T05:22:00;3.97;;;3.58;;
2638;SDS011;1329;51.384;7.122;2023-06-14T05:24:29;4.10;;;3.70;;
2638;SDS011;1329;51.384;7.122;2023-06-14T05:26:58;5.75;;;3.70;;
2638;SDS011;1329;51.384;7.122;2023-06-14T05:29:25;4.53;;;3.97;;
2638;SDS011;1329;51.384;7.122;2023-06-14T05:31:53;6.10;;;4.05;;
2638;SDS011;1329;51.384;7.122;2023-06-14T05:34:20;4.70;;;3.97;;
2638;SDS011;1329;51.384;7.122;2023-06-14T05:36:50;4.15;;;3.63;;
2638;SDS011;1329;51.384;7.122;2023-06-14T05:39:17;4.72;;;3.88;;
2638;SDS011;1329;51.384;7.122;2023-06-14T05:41:47;4.60;;;3.97;;
2638;SDS011;1329;51.384;7.122;2023-06-14T05:44:19;4.63;;;4.20;;
2638;SDS011;1329;51.384;7.122;2023-06-14T05:47:07;5.85;;;3.83;;
2638;SDS011;1329;51.384;7.122;2023-06-14T05:49:40;4.15;;;3.75;;
2638;SDS011;1329;51.384;7.122;2023-06-14T05:52:08;6.07;;;4.20;;
2638;SDS011;1329;51.384;7.122;2023-06-14T05:55:09;4.95;;;3.90;;
2638;SDS011;1329;51.384;7.122;2023-06-14T05:57:38;4.68;;;4.05;;
2638;SDS011;1329;51.384;7.122;2023-06-14T06:00:08;6.57;;;3.75;;
2638;SDS011;1329;51.384;7.122;2023-06-14T06:02:39;4.18;;;3.75;;
2638;SDS011;1329;51.384;7.122;2023-06-14T06:05:10;4.18;;;3.78;;
2638;SDS011;1329;51.384;7.122;2023-06-14T06:07:45;4.20;;;3.30;;
2638;SDS011;1329;51.384;7.122;2023-06-14T06:10:26;4.07;;;3.47;;
2638;SDS011;1329;51.384;7.122;2023-06-14T06:12:57;3.90;;;3.50;;
2638;SDS011;1329;51.384;7.122;2023-06-14T06:15:28;3.65;;;3.35;;
2638;SDS011;1329;51.384;7.122;2023-06-14T06:17:55;3.40;;;3.10;;
2638;SDS011;1329;51.384;7.122;2023-06-14T06:20:26;4.65;;;3.20;;
2638;SDS011;1329;51.384;7.122;2023-06-14T06:22:56;3.45;;;3.15;;
2638;SDS011;1329;51.384;7.122;2023-06-14T06:25:23;6.55;;;3.30;;
2638;SDS011;1329;51.384;7.122;2023-06-14T06:27:53;3.63;;;3.30;;
2638;SDS011;1329;51.384;7.122;2023-06-14T06:30:22;5.72;;;3.33;;
2638;SDS011;1329;51.384;7.122;2023-06-14T06:32:55;3.67;;;3.05;;
2638;SDS011;1329;51.384;7.122;2023-06-14T06:35:22;4.65;;;2.85;;
2638;SDS011;1329;51.384;7.122;2023-06-14T06:37:58;3.35;;;2.95;;
2638;SDS011;1329;51.384;7.122;2023-06-14T06:40:26;3.10;;;2.80;;
2638;SDS011;1329;51.384;7.122;2023-06-14T06:42:53;3.30;;;3.00;;
2638;SDS011;1329;51.384;7.122;2023-06-14T06:45:26;2.70;;;2.45;;
2638;SDS011;1329;51.384;7.122;2023-06-14T06:48:08;2.50;;;2.30;;
2638;SDS011;1329;51.384;7.122;2023-06-14T06:50:37;2.78;;;2.20;;
2638;SDS011;1329;51.384;7.122;2023-06-14T06:53:35;2.88;;;2.30;;
2638;SDS011;1329;51.384;7.122;2023-06-14T06:56:05;2.53;;;2.33;;
2638;SDS011;1329;51.384;7.122;2023-06-14T06:58:34;3.40;;;2.15;;
2638;SDS011;1329;51.384;7.122;2023-06-14T07:01:02;2.42;;;2.20;;
2638;SDS011;1329;51.384;7.122;2023-06-14T07:03:30;2.92;;;2.00;;
2638;SDS011;1329;51.384;7.122;2023-06-14T07:05:59;2.28;;;2.08;;
2638;SDS011;1329;51.384;7.122;2023-06-14T07:08:27;1.83;;;1.73;;
2638;SDS011;1329;51.384;7.122;2023-06-14T07:11:04;1.98;;;1.63;;
2638;SDS011;1329;51.384;7.122;2023-06-14T07:13:32;2.95;;;1.98;;
2638;SDS011;1329;51.384;7.122;2023-06-14T07:16:00;4.32;;;1.90;;
2638;SDS011;1329;51.384;7.122;2023-06-14T07:21:18;1.77;;;1.65;;
2638;SDS011;1329;51.384;7.122;2023-06-14T07:23:45;2.42;;;1.80;;
2638;SDS011;1329;51.384;7.122;2023-06-14T07:26:18;2.22;;;1.70;;
2638;SDS011;1329;51.384;7.122;2023-06-14T07:28:48;1.58;;;1.48;;
2638;SDS011;1329;51.384;7.122;2023-06-14T07:31:22;1.88;;;1.70;;
2638;SDS011;1329;51.384;7.122;2023-06-14T07:33:51;2.00;;;1.77;;
2638;SDS011;1329;51.384;7.122;2023-06-14T07:36:22;2.35;;;1.80;;
2638;SDS011;1329;51.384;7.122;2023-06-14T07:38:50;2.47;;;1.60;;
2638;SDS011;1329;51.384;7.122;2023-06-14T07:41:45;2.72;;;1.80;;
2638;SDS011;1329;51.384;7.122;2023-06-14T07:44:24;2.47;;;1.90;;
2638;SDS011;1329;51.384;7.122;2023-06-14T07:47:32;2.00;;;1.90;;
2638;SDS011;1329;51.384;7.122;2023-06-14T07:50:01;2.42;;;1.70;;
2638;SDS011;1329;51.384;7.122;2023-06-14T07:52:31;2.15;;;1.85;;
2638;SDS011;1329;51.384;7.122;2023-06-14T07:55:01;2.40;;;1.95;;
2638;SDS011;1329;51.384;7.122;2023-06-14T07:57:29;1.88;;;1.70;;
2638;SDS011;1329;51.384;7.122;2023-06-14T07:59:57;2.17;;;1.73;;
2638;SDS011;1329;51.384;7.122;2023-06-14T08:02:26;1.92;;;1.80;;
2638;SDS011;1329;51.384;7.122;2023-06-14T08:04:53;1.70;;;1.60;;
2638;SDS011;1329;51.384;7.122;2023-06-14T08:07:22;1.73;;;1.60;;
2638;SDS011;1329;51.384;7.122;2023-06-14T08:09:56;2.47;;;2.00;;
2638;SDS011;1329;51.384;7.122;2023-06-14T08:12:30;3.85;;;2.30;;
2638;SDS011;1329;51.384;7.122;2023-06-14T08:14:58;2.22;;;1.85;;
2638;SDS011;1329;51.384;7.122;2023-06-14T08:17:25;3.65;;;1.90;;
2638;SDS011;1329;51.384;7.122;2023-06-14T08:19:52;2.08;;;1.88;;
2638;SDS011;1329;51.384;7.122;2023-06-14T08:22:23;4.43;;;2.08;;
2638;SDS011;1329;51.384;7.122;2023-06-14T08:24:53;2.00;;;1.85;;
2638;SDS011;1329;51.384;7.122;2023-06-14T08:27:20;2.20;;;2.00;;
2638;SDS011;1329;51.384;7.122;2023-06-14T08:29:47;2.10;;;1.90;;
2638;SDS011;1329;51.384;7.122;2023-06-14T08:32:15;2.90;;;1.77;;
2638;SDS011;1329;51.384;7.122;2023-06-14T08:34:44;2.95;;;1.80;;
2638;SDS011;1329;51.384;7.122;2023-06-14T08:37:23;2.55;;;2.10;;
2638;SDS011;1329;51.384;7.122;2023-06-14T08:39:52;1.80;;;1.60;;
2638;SDS011;1329;51.384;7.122;2023-06-14T08:42:21;1.70;;;1.60;;
2638;SDS011;1329;51.384;7.122;2023-06-14T08:44:51;1.70;;;1.60;;
2638;SDS011;1329;51.384;7.122;2023-06-14T08:47:21;1.83;;;1.40;;
2638;SDS011;1329;51.384;7.122;2023-06-14T08:49:51;1.70;;;1.60;;
2638;SDS011;1329;51.384;7.122;2023-06-14T08:52:24;1.75;;;1.65;;
2638;SDS011;1329;51.384;7.122;2023-06-14T08:55:00;1.70;;;1.55;;
2638;SDS011;1329;51.384;7.122;2023-06-14T08:57:27;2.28;;;1.75;;
2638;SDS011;1329;51.384;7.122;2023-06-14T08:59:57;1.80;;;1.70;;
2638;SDS011;1329;51.384;7.122;2023-06-14T09:02:37;1.75;;;1.60;;
2638;SDS011;1329;51.384;7.122;2023-06-14T09:05:13;1.50;;;1.40;;
2638;SDS011;1329;51.384;7.122;2023-06-14T09:07:44;1.70;;;1.50;;
2638;SDS011;1329;51.384;7.122;2023-06-14T09:10:14;1.50;;;1.40;;
2638;SDS011;1329;51.384;7.122;2023-06-14T09:12:42;1.40;;;1.30;;
2638;SDS011;1329;51.384;7.122;2023-06-14T09:15:10;2.00;;;1.35;;
2638;SDS011;1329;51.384;7.122;2023-06-14T09:17:39;1.55;;;1.45;;
2638;SDS011;1329;51.384;7.122;2023-06-14T09:20:07;1.38;;;1.27;;
2638;SDS011;1329;51.384;7.122;2023-06-14T09:22:44;1.40;;;1.30;;
2638;SDS011;1329;51.384;7.122;2023-06-14T09:25:12;2.88;;;1.23;;
2638;SDS011;1329;51.384;7.122;2023-06-14T09:27:43;1.90;;;1.40;;
2638;SDS011;1329;51.384;7.122;2023-06-14T09:30:16;1.40;;;1.30;;
2638;SDS011;1329;51.384;7.122;2023-06-14T09:32:53;2.92;;;1.30;;
2638;SDS011;1329;51.384;7.122;2023-06-14T09:35:23;1.45;;;1.35;;
2638;SDS011;1329;51.384;7.122;2023-06-14T09:37:54;1.45;;;1.35;;
2638;SDS011;1329;51.384;7.122;2023-06-14T09:40:24;1.73;;;1.30;;
2638;SDS011;1329;51.384;7.122;2023-06-14T09:43:06;1.40;;;1.30;;
2638;SDS011;1329;51.384;7.122;2023-06-14T09:45:37;1.30;;;1.20;;
2638;SDS011;1329;51.384;7.122;2023-06-14T09:48:06;1.40;;;1.30;;
2638;SDS011;1329;51.384;7.122;2023-06-14T09:50:35;1.30;;;1.20;;
2638;SDS011;1329;51.384;7.122;2023-06-14T09:53:07;1.42;;;1.33;;
2638;SDS011;1329;51.384;7.122;2023-06-14T09:55:37;2.00;;;1.40;;
2638;SDS011;1329;51.384;7.122;2023-06-14T09:58:07;1.40;;;1.30;;
2638;SDS011;1329;51.384;7.122;2023-06-14T10:00:40;1.30;;;1.10;;
2638;SDS011;1329;51.384;7.122;2023-06-14T10:03:16;2.63;;;1.50;;
2638;SDS011;1329;51.384;7.122;2023-06-14T10:05:51;0.90;;;0.90;;
2638;SDS011;1329;51.384;7.122;2023-06-14T10:08:23;0.90;;;0.90;;
2638;SDS011;1329;51.384;7.122;2023-06-14T10:10:53;1.10;;;1.00;;
2638;SDS011;1329;51.384;7.122;2023-06-14T10:13:23;1.00;;;1.00;;
2638;SDS011;1329;51.384;7.122;2023-06-14T10:15:54;1.10;;;1.08;;
2638;SDS011;1329;51.384;7.122;2023-06-14T10:18:36;1.83;;;1.17;;
2638;SDS011;1329;51.384;7.122;2023-06-14T10:21:32;1.00;;;1.00;;
2638;SDS011;1329;51.384;7.122;2023-06-14T10:24:19;1.45;;;1.20;;
2638;SDS011;1329;51.384;7.122;2023-06-14T10:26:56;1.88;;;1.40;;
2638;SDS011;1329;51.384;7.122;2023-06-14T10:29:24;1.40;;;1.25;;
2638;SDS011;1329;51.384;7.122;2023-06-14T10:31:57;1.65;;;1.35;;
2638;SDS011;1329;51.384;7.122;2023-06-14T10:34:26;1.67;;;1.30;;
2638;SDS011;1329;51.384;7.122;2023-06-14T10:37:00;1.40;;;1.30;;
2638;SDS011;1329;51.384;7.122;2023-06-14T10:39:31;1.95;;;1.20;;
2638;SDS011;1329;51.384;7.122;2023-06-14T10:42:01;1.30;;;1.20;;
2638;SDS011;1329;51.384;7.122;2023-06-14T10:44:30;1.35;;;1.25;;
2638;SDS011;1329;51.384;7.122;2023-06-14T10:47:24;1.27;;;1.10;;
2638;SDS011;1329;51.384;7.122;2023-06-14T10:49:54;1.20;;;1.17;;
2638;SDS011;1329;51.384;7.122;2023-06-14T10:52:24;1.20;;;1.10;;
2638;SDS011;1329;51.384;7.122;2023-06-14T10:55:02;1.30;;;1.20;;
2638;SDS011;1329;51.384;7.122;2023-06-14T10:57:40;4.88;;;1.42;;
2638;SDS011;1329;51.384;7.122;2023-06-14T11:00:17;1.30;;;1.10;;
2638;SDS011;1329;51.384;7.122;2023-06-14T11:02:52;1.88;;;1.38;;
2638;SDS011;1329;51.384;7.122;2023-06-14T11:06:14;1.98;;;1.42;;
2638;SDS011;1329;51.384;7.122;2023-06-14T11:09:13;2.28;;;1.20;;
2638;SDS011;1329;51.384;7.122;2023-06-14T11:12:04;1.65;;;1.10;;
2638;SDS011;1329;51.384;7.122;2023-06-14T11:14:36;1.23;;;1.13;;
2638;SDS011;1329;51.384;7.122;2023-06-14T11:17:08;1.73;;;1.45;;
2638;SDS011;1329;51.384;7.122;2023-06-14T11:19:40;1.20;;;1.10;;
2638;SDS011;1329;51.384;7.122;2023-06-14T11:22:13;1.30;;;1.20;;
2638;SDS011;1329;51.384;7.122;2023-06-14T11:24:43;1.70;;;0.88;;
2638;SDS011;1329;51.384;7.122;2023-06-14T11:27:19;2.22;;;1.35;;
2638;SDS011;1329;51.384;7.122;2023-06-14T11:29:55;1.30;;;1.20;;
2638;SDS011;1329;51.384;7.122;2023-06-14T11:32:26;0.93;;;0.93;;
2638;SDS011;1329;51.384;7.122;2023-06-14T11:35:02;1.30;;;1.20;;
2638;SDS011;1329;51.384;7.122;2023-06-14T11:37:33;1.10;;;1.00;;
2638;SDS011;1329;51.384;7.122;2023-06-14T11:40:06;1.00;;;1.00;;
2638;SDS011;1329;51.384;7.122;2023-06-14T11:43:02;1.10;;;1.10;;
2638;SDS011;1329;51.384;7.122;2023-06-14T11:45:34;1.17;;;1.05;;
2638;SDS011;1329;51.384;7.122;2023-06-14T11:48:04;1.35;;;1.20;;
2638;SDS011;1329;51.384;7.122;2023-06-14T11:50:37;1.23;;;1.13;;
2638;SDS011;1329;51.384;7.122;2023-06-14T11:53:08;1.63;;;1.23;;
2638;SDS011;1329;51.384;7.122;2023-06-14T11:55:36;2.40;;;1.20;;
2638;SDS011;1329;51.384;7.122;2023-06-14T11:58:09;1.67;;;0.93;;
2638;SDS011;1329;51.384;7.122;2023-06-14T12:00:37;2.05;;;1.30;;
2638;SDS011;1329;51.384;7.122;2023-06-14T12:03:06;1.50;;;1.40;;
2638;SDS011;1329;51.384;7.122;2023-06-14T12:05:35;1.50;;;1.35;;
2638;SDS011;1329;51.384;7.122;2023-06-14T12:08:33;1.40;;;1.30;;
2638;SDS011;1329;51.384;7.122;2023-06-14T12:11:05;2.88;;;1.40;;
2638;SDS011;1329;51.384;7.122;2023-06-14T12:13:44;1.30;;;1.20;;
2638;SDS011;1329;51.384;7.122;2023-06-14T12:16:11;2.08;;;1.63;;
2638;SDS011;1329;51.384;7.122;2023-06-14T12:18:42;1.50;;;1.40;;
2638;SDS011;1329;51.384;7.122;2023-06-14T12:21:11;1.80;;;1.50;;
2638;SDS011;1329;51.384;7.122;2023-06-14T12:23:38;1.70;;;1.60;;
2638;SDS011;1329;51.384;7.122;2023-06-14T12:26:11;1.67;;;1.55;;
2638;SDS011;1329;51.384;7.122;2023-06-14T12:28:40;1.60;;;1.50;;
2638;SDS011;1329;51.384;7.122;2023-06-14T12:31:12;2.10;;;1.25;;
2638;SDS011;1329;51.384;7.122;2023-06-14T12:33:41;1.80;;;1.70;;
2638;SDS011;1329;51.384;7.122;2023-06-14T12:36:10;1.70;;;1.60;;
2638;SDS011;1329;51.384;7.122;2023-06-14T12:38:38;1.67;;;1.58;;
2638;SDS011;1329;51.384;7.122;2023-06-14T12:41:05;1.63;;;1.52;;
2638;SDS011;1329;51.384;7.122;2023-06-14T12:43:32;1.70;;;1.60;;
2638;SDS011;1329;51.384;7.122;2023-06-14T12:46:00;3.17;;;1.85;;
2638;SDS011;1329;51.384;7.122;2023-06-14T12:48:29;1.92;;;1.60;;
2638;SDS011;1329;51.384;7.122;2023-06-14T12:51:00;1.77;;;1.67;;
2638;SDS011;1329;51.384;7.122;2023-06-14T12:53:33;1.60;;;1.30;;
2638;SDS011;1329;51.384;7.122;2023-06-14T12:56:02;1.50;;;1.40;;
2638;SDS011;1329;51.384;7.122;2023-06-14T12:58:33;1.60;;;1.48;;
2638;SDS011;1329;51.384;7.122;2023-06-14T13:01:00;1.85;;;1.38;;
2638;SDS011;1329;51.384;7.122;2023-06-14T13:03:41;1.70;;;1.60;;
2638;SDS011;1329;51.384;7.122;2023-06-14T13:06:08;2.15;;;1.70;;
2638;SDS011;1329;51.384;7.122;2023-06-14T13:08:36;1.70;;;1.60;;
2638;SDS011;1329;51.384;7.122;2023-06-14T13:11:03;1.77;;;1.67;;
2638;SDS011;1329;51.384;7.122;2023-06-14T13:13:32;2.15;;;1.63;;
2638;SDS011;1329;51.384;7.122;2023-06-14T13:16:02;3.00;;;1.40;;
2638;SDS011;1329;51.384;7.122;2023-06-14T13:18:30;1.95;;;1.60;;
2638;SDS011;1329;51.384;7.122;2023-06-14T13:20:58;2.97;;;1.77;;
2638;SDS011;1329;51.384;7.122;2023-06-14T13:23:26;1.60;;;1.48;;
2638;SDS011;1329;51.384;7.122;2023-06-14T13:25:53;1.80;;;1.20;;
2638;SDS011;1329;51.384;7.122;2023-06-14T13:28:20;1.60;;;1.50;;
2638;SDS011;1329;51.384;7.122;2023-06-14T13:30:51;4.55;;;1.50;;
2638;SDS011;1329;51.384;7.122;2023-06-14T13:33:18;2.13;;;1.60;;
2638;SDS011;1329;51.384;7.122;2023-06-14T13:35:46;1.70;;;1.60;;
2638;SDS011;1329;51.384;7.122;2023-06-14T13:38:17;1.70;;;1.60;;
2638;SDS011;1329;51.384;7.122;2023-06-14T13:40:45;1.77;;;1.67;;
2638;SDS011;1329;51.384;7.122;2023-06-14T13:43:12;3.33;;;1.77;;
2638;SDS011;1329;51.384;7.122;2023-06-14T13:45:39;1.88;;;1.73;;
2638;SDS011;1329;51.384;7.122;2023-06-14T13:48:07;1.90;;;1.67;;
2638;SDS011;1329;51.384;7.122;2023-06-14T13:50:36;1.58;;;1.45;;
2638;SDS011;1329;51.384;7.122;2023-06-14T13:53:06;2.22;;;1.55;;
2638;SDS011;1329;51.384;7.122;2023-06-14T13:55:35;1.70;;;1.60;;
2638;SDS011;1329;51.384;7.122;2023-06-14T13:58:02;1.80;;;1.40;;
2638;SDS011;1329;51.384;7.122;2023-06-14T14:00:32;1.58;;;1.48;;
2638;SDS011;1329;51.384;7.122;2023-06-14T14:03:05;1.48;;;1.38;;
2638;SDS011;1329;51.384;7.122;2023-06-14T14:05:34;1.75;;;1.65;;
2638;SDS011;1329;51.384;7.122;2023-06-14T14:08:01;1.70;;;1.60;;
2638;SDS011;1329;51.384;7.122;2023-06-14T14:10:34;2.22;;;1.67;;
2638;SDS011;1329;51.384;7.122;2023-06-14T14:13:03;1.73;;;1.63;;
2638;SDS011;1329;51.384;7.122;2023-06-14T14:15:30;2.13;;;1.70;;
2638;SDS011;1329;51.384;7.122;2023-06-14T14:18:01;1.50;;;1.40;;
2638;SDS011;1329;51.384;7.122;2023-06-14T14:20:35;2.35;;;1.85;;
2638;SDS011;1329;51.384;7.122;2023-06-14T14:23:16;1.70;;;1.60;;
2638;SDS011;1329;51.384;7.122;2023-06-14T14:25:47;1.63;;;1.52;;
2638;SDS011;1329;51.384;7.122;2023-06-14T14:28:38;2.00;;;1.80;;
2638;SDS011;1329;51.384;7.122;2023-06-14T14:31:05;1.77;;;1.63;;
2638;SDS011;1329;51.384;7.122;2023-06-14T14:33:32;2.33;;;1.50;;
2638;SDS011;1329;51.384;7.122;2023-06-14T14:36:25;2.30;;;1.50;;
2638;SDS011;1329;51.384;7.122;2023-06-14T14:38:52;1.77;;;1.65;;
2638;SDS011;1329;51.384;7.122;2023-06-14T14:41:27;1.70;;;1.60;;
2638;SDS011;1329;51.384;7.122;2023-06-14T14:44:11;2.40;;;1.88;;
2638;SDS011;1329;51.384;7.122;2023-06-14T14:46:49;2.13;;;1.63;;
2638;SDS011;1329;51.384;7.122;2023-06-14T14:49:43;1.60;;;1.50;;
2638;SDS011;1329;51.384;7.122;2023-06-14T14:52:13;1.90;;;1.80;;
2638;SDS011;1329;51.384;7.122;2023-06-14T14:54:43;3.92;;;1.77;;
2638;SDS011;1329;51.384;7.122;2023-06-14T14:57:26;1.70;;;1.60;;
2638;SDS011;1329;51.384;7.122;2023-06-14T15:00:11;2.35;;;1.65;;
2638;SDS011;1329;51.384;7.122;2023-06-14T15:02:44;2.17;;;2.05;;
2638;SDS011;1329;51.384;7.122;2023-06-14T15:05:11;1.90;;;1.80;;
2638;SDS011;1329;51.384;7.122;2023-06-14T15:07:47;2.00;;;1.90;;
2638;SDS011;1329;51.384;7.122;2023-06-14T15:10:15;1.90;;;1.70;;
2638;SDS011;1329;51.384;7.122;2023-06-14T15:15:35;4.00;;;2.05;;
2638;SDS011;1329;51.384;7.122;2023-06-14T15:18:31;1.80;;;1.65;;
2638;SDS011;1329;51.384;7.122;2023-06-14T15:21:01;1.83;;;1.60;;
2638;SDS011;1329;51.384;7.122;2023-06-14T15:23:29;1.70;;;1.60;;
2638;SDS011;1329;51.384;7.122;2023-06-14T15:25:56;1.80;;;1.70;;
2638;SDS011;1329;51.384;7.122;2023-06-14T15:28:25;1.77;;;1.67;;
2638;SDS011;1329;51.384;7.122;2023-06-14T15:30:56;2.00;;;1.90;;
2638;SDS011;1329;51.384;7.122;2023-06-14T15:33:30;1.95;;;1.75;;
2638;SDS011;1329;51.384;7.122;2023-06-14T15:35:57;1.80;;;1.70;;
2638;SDS011;1329;51.384;7.122;2023-06-14T15:38:28;1.83;;;1.73;;
2638;SDS011;1329;51.384;7.122;2023-06-14T15:40:57;2.38;;;2.05;;
2638;SDS011;1329;51.384;7.122;2023-06-14T15:43:25;1.73;;;1.63;;
2638;SDS011;1329;51.384;7.122;2023-06-14T15:45:53;2.05;;;1.92;;
2638;SDS011;1329;51.384;7.122;2023-06-14T15:48:22;2.75;;;2.00;;